Time;durP1;ratioP1;P1;durP2;ratioP2;P2;SDS_P1;SDS_P2;PMS_P1;PMS_P2;Temp;Humidity;BMP_temperature;BMP_pressure;BME280_temperature;BME280_humidity;BME280_pressure;Samples;Min_cycle;Max_cycle;Signal;HPM_P1;HPM_P2
2023/05/18 00:01:08;;;;;;;30.05;9.15;;;;;;;16.57;43.96;100306.47;5053125;28;20033;-66
2023/05/18 00:03:34;;;;;;;36.03;9.32;;;;;;;16.55;43.99;100298.53;5052556;28;20040;-61
2023/05/18 00:06:03;;;;;;;34.60;10.20;;;;;;;16.43;44.02;100287.09;5052510;28;20391;-61
2023/05/18 00:08:38;;;;;;;35.05;10.68;;;;;;;16.63;43.82;100313.97;5035267;28;20037;-62
2023/05/18 00:11:04;;;;;;;26.92;9.38;;;;;;;16.59;44.24;100318.84;5033538;28;20166;-60
2023/05/18 00:13:30;;;;;;;27.20;9.65;;;;;;;16.51;44.45;100313.31;5032639;28;20361;-58
2023/05/18 00:15:56;;;;;;;26.98;10.50;;;;;;;16.34;44.52;100291.53;5043872;28;20444;-61
2023/05/18 00:18:23;;;;;;;26.83;10.73;;;;;;;16.27;44.64;100284.16;5052447;28;20032;-62
2023/05/18 00:20:57;;;;;;;28.15;9.75;;;;;;;16.37;44.98;100309.28;5052855;28;20350;-60
2023/05/18 00:23:28;;;;;;;30.40;9.48;;;;;;;16.49;44.40;100316.19;5051782;28;20345;-62
2023/05/18 00:25:56;;;;;;;24.25;9.73;;;;;;;16.41;44.95;100317.94;5052121;28;20029;-61
2023/05/18 00:28:21;;;;;;;24.05;9.93;;;;;;;16.39;44.97;100317.25;5052263;28;20465;-61
2023/05/18 00:30:47;;;;;;;25.33;9.75;;;;;;;16.42;45.01;100319.66;5051609;28;20040;-64
2023/05/18 00:33:12;;;;;;;35.00;10.57;;;;;;;16.34;45.01;100318.56;5051590;28;20033;-62
2023/05/18 00:35:38;;;;;;;22.60;9.68;;;;;;;16.36;45.22;100319.25;5051876;28;20029;-58
2023/05/18 00:38:03;;;;;;;28.35;10.05;;;;;;;16.35;45.23;100319.38;5051727;28;20506;-60
2023/05/18 00:40:29;;;;;;;27.60;10.43;;;;;;;16.27;45.39;100322.81;5051787;28;20068;-61
2023/05/18 00:42:54;;;;;;;33.75;10.02;;;;;;;16.21;45.74;100327.00;5052010;28;20468;-58
2023/05/18 00:45:20;;;;;;;24.80;9.88;;;;;;;16.12;45.71;100321.63;5051817;28;20466;-60
2023/05/18 00:47:47;;;;;;;21.35;9.52;;;;;;;16.04;46.05;100315.13;5051809;28;20063;-61
2023/05/18 00:50:12;;;;;;;22.67;9.82;;;;;;;16.04;46.26;100330.47;5051830;28;20059;-58
2023/05/18 00:52:38;;;;;;;31.65;10.52;;;;;;;16.05;46.32;100324.06;5034723;28;20406;-59
2023/05/18 00:55:05;;;;;;;33.22;9.98;;;;;;;16.06;46.02;100336.56;5051697;28;20108;-59
2023/05/18 00:57:32;;;;;;;28.75;10.13;;;;;;;16.06;46.18;100325.78;5051628;28;20201;-59
2023/05/18 00:59:59;;;;;;;26.98;10.55;;;;;;;16.03;46.34;100320.66;5051913;28;20090;-57
2023/05/18 01:02:28;;;;;;;26.90;10.68;;;;;;;15.79;46.41;100292.28;5051904;28;20025;-57
2023/05/18 01:04:55;;;;;;;26.77;10.75;;;;;;;15.93;46.58;100320.69;5051448;28;20039;-60
2023/05/18 01:07:25;;;;;;;30.83;10.02;;;;;;;15.93;46.78;100326.97;5051848;28;20021;-58
2023/05/18 01:09:54;;;;;;;27.88;11.05;;;;;;;15.87;46.98;100327.50;5051878;28;20036;-59
2023/05/18 01:12:36;;;;;;;20.58;9.95;;;;;;;15.86;46.88;100324.94;5051701;28;20029;-59
2023/05/18 01:15:12;;;;;;;33.40;10.80;;;;;;;15.90;46.70;100326.38;5051246;28;20164;-62
2023/05/18 01:18:05;;;;;;;22.80;9.75;;;;;;;15.92;46.45;100324.41;5052452;28;20119;-61
2023/05/18 01:20:45;;;;;;;25.25;10.32;;;;;;;15.79;46.80;100314.75;5051417;28;20041;-62
2023/05/18 01:23:28;;;;;;;32.65;10.02;;;;;;;15.92;46.56;100324.41;5051693;28;20122;-60
2023/05/18 01:25:54;;;;;;;32.53;10.65;;;;;;;15.87;46.81;100316.69;5052055;28;20123;-58
2023/05/18 01:28:26;;;;;;;26.48;10.95;;;;;;;15.90;46.89;100324.53;5051381;28;20447;-58
2023/05/18 01:30:52;;;;;;;31.92;11.35;;;;;;;15.89;46.72;100319.28;5051086;28;20021;-61
2023/05/18 01:33:18;;;;;;;23.13;10.40;;;;;;;15.88;46.84;100322.94;5051933;28;20068;-58
2023/05/18 01:35:47;;;;;;;25.42;10.13;;;;;;;15.79;47.28;100320.16;5051955;28;20075;-62
2023/05/18 01:38:15;;;;;;;28.33;10.65;;;;;;;15.83;47.12;100319.84;5051330;28;20021;-63
2023/05/18 01:40:49;;;;;;;29.50;10.07;;;;;;;15.92;47.02;100332.50;5051171;28;20395;-58
2023/05/18 01:43:19;;;;;;;29.10;11.07;;;;;;;15.95;46.95;100328.66;5051782;28;20112;-57
2023/05/18 01:45:47;;;;;;;32.88;10.68;;;;;;;15.90;47.08;100321.00;5051817;28;20044;-58
2023/05/18 01:48:19;;;;;;;32.85;12.10;;;;;;;15.91;47.43;100322.69;5053556;28;20040;-56
2023/05/18 01:50:47;;;;;;;31.45;10.73;;;;;;;16.00;47.48;100340.69;5055197;28;20029;-61
2023/05/18 01:53:51;;;;;;;32.83;10.77;;;;;;;15.95;46.75;100304.34;5055920;28;20123;-58
2023/05/18 01:56:19;;;;;;;29.70;10.45;;;;;;;16.05;47.26;100334.88;4974755;28;20039;-59
2023/05/18 01:58:46;;;;;;;37.03;11.60;;;;;;;16.05;47.16;100329.47;5041125;28;20136;-61
2023/05/18 02:01:12;;;;;;;30.80;10.90;;;;;;;16.05;46.85;100326.78;5054749;28;20105;-59
2023/05/18 02:03:37;;;;;;;29.52;11.05;;;;;;;16.09;47.40;100332.75;5055530;28;20024;-59
2023/05/18 02:06:03;;;;;;;28.52;11.15;;;;;;;15.86;46.90;100284.44;5055218;28;20039;-59
2023/05/18 02:08:29;;;;;;;25.35;11.00;;;;;;;16.07;47.21;100317.53;5054614;28;20182;-60
2023/05/18 02:10:54;;;;;;;37.97;11.88;;;;;;;16.18;47.18;100331.84;5054664;28;20051;-59
2023/05/18 02:13:20;;;;;;;29.73;11.45;;;;;;;16.16;47.59;100329.31;5055254;28;20029;-63
2023/05/18 02:15:45;;;;;;;30.05;11.55;;;;;;;16.21;47.95;100318.03;5037106;28;20057;-61
2023/05/18 02:18:11;;;;;;;26.83;10.93;;;;;;;16.24;47.81;100322.28;5054875;28;20135;-59
2023/05/18 02:20:37;;;;;;;26.88;10.65;;;;;;;16.32;47.93;100331.38;5054222;28;20041;-58
2023/05/18 02:23:02;;;;;;;29.70;11.45;;;;;;;16.42;47.08;100331.31;5054904;28;20094;-60
2023/05/18 02:25:28;;;;;;;24.48;11.20;;;;;;;16.36;46.96;100305.75;5054682;28;20076;-60
2023/05/18 02:27:53;;;;;;;28.73;11.00;;;;;;;16.63;47.56;100327.50;5036750;28;20120;-61
2023/05/18 02:30:19;;;;;;;23.45;11.25;;;;;;;16.56;47.17;100312.88;5054126;28;20061;-61
2023/05/18 02:32:45;;;;;;;23.27;11.63;;;;;;;16.76;47.27;100333.41;5054656;28;20036;-59
2023/05/18 02:35:12;;;;;;;25.73;11.38;;;;;;;16.85;46.71;100336.19;5054187;28;20082;-59
2023/05/18 02:37:42;;;;;;;33.67;11.43;;;;;;;16.90;46.48;100328.50;5054218;28;20131;-60
2023/05/18 02:40:13;;;;;;;24.80;11.23;;;;;;;17.02;45.84;100338.09;5053702;28;20112;-59
2023/05/18 02:42:39;;;;;;;27.48;11.48;;;;;;;17.02;45.81;100329.97;5054437;28;20058;-61
2023/05/18 02:45:05;;;;;;;32.97;11.23;;;;;;;17.07;46.22;100349.31;5053852;28;20504;-59
2023/05/18 02:47:33;;;;;;;22.70;10.27;;;;;;;17.08;46.61;100342.06;5054034;28;20055;-59
2023/05/18 02:49:59;;;;;;;24.42;11.65;;;;;;;17.17;46.10;100340.28;5054243;28;20090;-58
2023/05/18 02:52:26;;;;;;;29.75;11.30;;;;;;;17.20;45.66;100323.72;5054161;28;20032;-61
2023/05/18 02:54:53;;;;;;;28.45;11.68;;;;;;;17.31;45.54;100336.19;5053820;28;20502;-60
2023/05/18 02:57:20;;;;;;;25.42;11.40;;;;;;;17.25;45.14;100307.03;5054212;28;20150;-59
2023/05/18 02:59:46;;;;;;;32.92;12.05;;;;;;;17.52;44.97;100332.28;5053387;28;20032;-61
2023/05/18 03:02:15;;;;;;;27.40;12.05;;;;;;;17.62;44.44;100335.75;5053836;28;20372;-60
2023/05/18 03:04:41;;;;;;;25.23;11.60;;;;;;;17.75;44.38;100335.34;5054232;28;20064;-59
2023/05/18 03:07:07;;;;;;;26.42;11.32;;;;;;;17.86;44.10;100328.81;5053749;28;20029;-60
2023/05/18 03:09:32;;;;;;;22.25;11.00;;;;;;;17.98;43.81;100334.81;5053668;28;20021;-60
2023/05/18 03:11:58;;;;;;;27.52;11.55;;;;;;;18.10;43.23;100330.88;5054107;28;20117;-59
2023/05/18 03:14:24;;;;;;;19.60;10.70;;;;;;;18.25;42.70;100330.25;5053495;28;20052;-61
2023/05/18 03:16:53;;;;;;;26.58;10.68;;;;;;;18.43;42.15;100335.56;5053389;28;20044;-60
2023/05/18 03:19:19;;;;;;;27.52;9.90;;;;;;;18.64;41.40;100332.44;5053544;28;20042;-64
2023/05/18 03:21:45;;;;;;;19.50;9.40;;;;;;;18.93;39.96;100312.19;5054450;28;20506;-58
2023/05/18 03:24:13;;;;;;;24.73;9.90;;;;;;;19.65;39.62;100314.25;5053082;28;20029;-63
2023/05/18 03:26:42;;;;;;;21.38;10.30;;;;;;;20.58;38.64;100330.16;5053167;28;20789;-58
2023/05/18 03:29:09;;;;;;;16.38;7.88;;;;;;;21.58;34.62;100324.94;5053965;28;20033;-62
2023/05/18 03:31:35;;;;;;;21.20;8.93;;;;;;;22.59;32.70;100333.75;5053657;28;20025;-60
2023/05/18 03:34:00;;;;;;;16.65;8.35;;;;;;;23.49;30.50;100333.50;5053242;28;20341;-61
2023/05/18 03:36:26;;;;;;;15.88;7.65;;;;;;;24.27;29.17;100323.53;5035578;28;20444;-60
2023/05/18 03:38:52;;;;;;;14.40;7.80;;;;;;;25.17;28.01;100339.06;5053497;28;20036;-59
2023/05/18 03:41:18;;;;;;;13.13;8.13;;;;;;;25.91;26.99;100333.63;5036626;28;20033;-60
2023/05/18 03:43:44;;;;;;;13.60;7.35;;;;;;;26.53;25.61;100324.22;5052532;28;20048;-62
2023/05/18 03:46:09;;;;;;;14.40;7.90;;;;;;;27.36;24.51;100342.56;5052887;28;20051;-61
2023/05/18 03:48:35;;;;;;;16.08;8.00;;;;;;;28.02;23.31;100338.66;5053562;28;20444;-61
2023/05/18 03:51:00;;;;;;;16.25;8.32;;;;;;;28.66;22.89;100343.88;5053582;28;20393;-62
2023/05/18 03:53:26;;;;;;;22.17;7.60;;;;;;;29.30;21.85;100331.53;5052778;28;20025;-60
2023/05/18 03:55:51;;;;;;;12.75;7.38;;;;;;;30.11;20.90;100341.28;5053106;28;20384;-61
2023/05/18 03:58:21;;;;;;;15.80;8.20;;;;;;;30.85;20.15;100334.25;5053270;28;20061;-61
2023/05/18 04:00:48;;;;;;;13.98;8.23;;;;;;;31.58;19.13;100342.75;5053487;28;20043;-60
2023/05/18 04:03:13;;;;;;;16.83;7.63;;;;;;;32.16;18.45;100325.94;5052789;28;20032;-60
2023/05/18 04:05:43;;;;;;;14.07;7.15;;;;;;;33.05;17.66;100344.50;5052608;28;20115;-60
2023/05/18 04:08:13;;;;;;;11.48;6.82;;;;;;;33.68;16.47;100355.09;5052988;28;20091;-60
2023/05/18 04:10:41;;;;;;;15.73;7.13;;;;;;;34.41;16.27;100352.78;5052479;28;20059;-61
2023/05/18 04:13:07;;;;;;;15.60;7.22;;;;;;;34.73;15.67;100347.09;5052145;28;20029;-60
2023/05/18 04:15:33;;;;;;;14.75;6.97;;;;;;;35.27;15.22;100352.47;5052368;28;20090;-60
2023/05/18 04:18:00;;;;;;;12.60;6.80;;;;;;;35.55;14.83;100348.34;5052574;28;20383;-61
2023/05/18 04:20:29;;;;;;;18.52;7.22;;;;;;;36.01;14.40;100364.16;5052649;28;20183;-60
2023/05/18 04:22:58;;;;;;;16.95;7.05;;;;;;;36.66;13.76;100359.81;5052133;28;20107;-60
2023/05/18 04:25:27;;;;;;;14.55;6.63;;;;;;;37.22;13.18;100357.81;5052170;28;20033;-60
2023/05/18 04:27:54;;;;;;;11.57;7.00;;;;;;;37.71;13.23;100360.78;5052229;28;20044;-64
2023/05/18 04:30:23;;;;;;;18.10;6.90;;;;;;;38.19;12.57;100355.28;5052348;28;20025;-59
2023/05/18 04:32:49;;;;;;;16.08;6.93;;;;;;;38.83;11.92;100345.00;5051658;28;20039;-60
2023/05/18 04:35:15;;;;;;;11.95;6.90;;;;;;;39.39;11.56;100356.50;5051961;28;20120;-61
2023/05/18 04:37:41;;;;;;;11.15;6.60;;;;;;;39.68;11.31;100328.25;5052139;28;20039;-61
2023/05/18 04:40:12;;;;;;;12.63;6.82;;;;;;;40.07;11.29;100351.38;5051926;28;20357;-61
2023/05/18 04:42:44;;;;;;;9.82;6.78;;;;;;;40.27;11.13;100355.75;5051900;28;20119;-61
2023/05/18 04:45:14;;;;;;;15.65;6.50;;;;;;;40.45;11.09;100355.97;5052049;28;20135;-61
2023/05/18 04:47:39;;;;;;;11.95;7.28;;;;;;;41.03;10.19;100348.78;5051962;28;20416;-61
2023/05/18 04:50:05;;;;;;;14.60;6.95;;;;;;;41.68;9.83;100354.22;5051677;28;20076;-61
2023/05/18 04:52:35;;;;;;;13.40;7.57;;;;;;;41.88;9.52;100333.16;5052353;28;20120;-61
2023/05/18 04:55:01;;;;;;;13.63;7.20;;;;;;;42.29;9.67;100339.59;5051366;28;20419;-61
2023/05/18 04:57:29;;;;;;;13.50;7.25;;;;;;;42.70;9.53;100334.75;5051655;28;20044;-62
2023/05/18 04:59:57;;;;;;;15.02;6.53;;;;;;;43.17;8.79;100336.09;5052328;28;20526;-61
2023/05/18 05:02:22;;;;;;;15.65;7.18;;;;;;;43.57;8.48;100320.97;5051929;28;20052;-61
2023/05/18 05:04:48;;;;;;;13.80;6.88;;;;;;;44.15;8.22;100337.50;5051454;28;20457;-61
2023/05/18 05:07:13;;;;;;;12.93;6.63;;;;;;;44.45;8.24;100338.34;5052306;28;20134;-61
2023/05/18 05:09:38;;;;;;;9.35;5.75;;;;;;;44.76;7.95;100330.66;5051517;28;20021;-61
2023/05/18 05:12:04;;;;;;;17.75;6.32;;;;;;;45.25;7.47;100346.22;5051229;28;20122;-61
2023/05/18 05:14:30;;;;;;;10.13;5.45;;;;;;;45.68;7.10;100341.28;5051574;28;20037;-61
2023/05/18 05:16:55;;;;;;;6.55;5.13;;;;;;;45.82;6.84;100333.31;5051997;28;20075;-64
2023/05/18 05:19:21;;;;;;;11.68;5.30;;;;;;;45.99;6.76;100329.44;5051769;28;20036;-62
2023/05/18 05:21:47;;;;;;;12.23;5.68;;;;;;;46.39;6.78;100336.38;5053220;28;20055;-61
2023/05/18 05:24:12;;;;;;;10.35;4.68;;;;;;;46.68;6.35;100340.13;5056261;28;20033;-60
2023/05/18 05:26:38;;;;;;;6.50;4.72;;;;;;;47.05;6.01;100336.34;5056267;28;20021;-61
2023/05/18 05:29:03;;;;;;;7.63;4.90;;;;;;;47.24;5.84;100329.19;5055792;28;20151;-62
2023/05/18 05:31:29;;;;;;;6.18;4.55;;;;;;;47.55;5.39;100334.09;5055608;28;20032;-62
2023/05/18 05:33:54;;;;;;;7.47;4.65;;;;;;;47.66;5.77;100331.59;5056246;28;20036;-67
2023/05/18 05:36:20;;;;;;;5.95;4.35;;;;;;;47.87;5.62;100338.97;5054386;28;20040;-68
2023/05/18 05:38:45;;;;;;;9.75;4.80;;;;;;;48.09;5.13;100311.13;5054912;28;20129;-68
2023/05/18 05:41:11;;;;;;;7.43;4.32;;;;;;;48.32;4.97;100328.31;5055038;28;20380;-66
2023/05/18 05:43:37;;;;;;;7.40;4.50;;;;;;;48.49;4.86;100324.25;5055150;28;20037;-68
2023/05/18 05:46:02;;;;;;;11.52;4.65;;;;;;;48.99;4.58;100323.69;5055774;28;20221;-66
2023/05/18 05:48:28;;;;;;;7.20;4.63;;;;;;;49.03;4.50;100329.47;5037206;28;20060;-67
2023/05/18 05:50:53;;;;;;;7.72;4.47;;;;;;;49.47;4.58;100331.94;5055427;28;20060;-66
2023/05/18 05:53:19;;;;;;;8.57;4.75;;;;;;;49.52;4.03;100331.66;5037812;28;20057;-66
2023/05/18 05:55:45;;;;;;;7.53;4.15;;;;;;;49.21;4.14;100326.97;5055355;28;20041;-70
2023/05/18 05:58:10;;;;;;;7.32;3.92;;;;;;;49.34;4.48;100327.63;5055133;28;20025;-65
2023/05/18 06:00:36;;;;;;;7.13;3.78;;;;;;;49.72;4.22;100325.06;5054181;28;20025;-65
2023/05/18 06:03:01;;;;;;;8.27;4.10;;;;;;;49.63;4.09;100322.47;5055260;28;20112;-65
2023/05/18 06:05:27;;;;;;;5.95;4.00;;;;;;;49.80;3.97;100327.66;5055840;28;20035;-67
2023/05/18 06:07:54;;;;;;;6.03;3.53;;;;;;;50.18;3.70;100298.56;5055150;28;20441;-66
2023/05/18 06:10:19;;;;;;;8.10;4.20;;;;;;;50.63;3.59;100322.41;5054513;28;20136;-68
2023/05/18 06:12:46;;;;;;;6.72;3.97;;;;;;;50.75;3.64;100329.09;5055064;28;20033;-69
2023/05/18 06:15:11;;;;;;;9.00;4.13;;;;;;;50.74;3.52;100327.44;5054578;28;20323;-66
2023/05/18 06:17:37;;;;;;;6.28;3.75;;;;;;;51.06;3.46;100322.16;5036279;28;20216;-67
2023/05/18 06:20:07;;;;;;;4.45;4.00;;;;;;;51.06;3.15;100313.59;5054012;28;20118;-67
2023/05/18 06:22:33;;;;;;;6.05;3.97;;;;;;;50.99;3.48;100310.66;5054229;28;20071;-64
2023/05/18 06:24:59;;;;;;;5.90;4.30;;;;;;;51.41;3.54;100314.38;5054442;28;20036;-66
2023/05/18 06:27:24;;;;;;;10.10;4.50;;;;;;;52.42;3.06;100313.53;5054967;28;20033;-70
2023/05/18 06:29:51;;;;;;;8.25;4.10;;;;;;;52.85;2.66;100330.88;5036928;28;20417;-66
2023/05/18 06:32:17;;;;;;;7.30;4.30;;;;;;;52.88;2.86;100314.94;5054155;28;20082;-65
2023/05/18 06:34:44;;;;;;;11.60;4.10;;;;;;;52.85;3.01;100318.63;5053725;28;20041;-64
2023/05/18 06:37:10;;;;;;;6.20;4.93;;;;;;;53.06;2.42;100313.00;5053841;28;20123;-68
2023/05/18 06:39:36;;;;;;;7.38;4.60;;;;;;;52.89;2.81;100320.28;5053863;28;20437;-68
2023/05/18 06:42:02;;;;;;;6.45;4.20;;;;;;;52.81;3.06;100316.56;5054157;28;20029;-67
2023/05/18 06:44:27;;;;;;;8.27;4.35;;;;;;;53.00;2.54;100316.63;5054171;28;20078;-67
2023/05/18 06:46:53;;;;;;;7.72;4.93;;;;;;;53.45;2.16;100311.41;5054616;28;20029;-68
2023/05/18 06:49:18;;;;;;;5.53;4.05;;;;;;;53.42;1.90;100294.25;5053904;28;20064;-66
2023/05/18 06:51:44;;;;;;;5.63;3.67;;;;;;;53.55;2.34;100311.84;5053353;28;20062;-68
2023/05/18 06:54:10;;;;;;;5.32;4.22;;;;;;;53.58;2.42;100313.88;5053557;28;20021;-67
2023/05/18 06:56:35;;;;;;;6.38;4.13;;;;;;;54.00;2.24;100311.41;5053553;28;20375;-68
2023/05/18 06:59:01;;;;;;;4.07;3.67;;;;;;;53.52;2.04;100310.59;5053457;28;20044;-67
2023/05/18 07:01:26;;;;;;;4.65;4.25;;;;;;;53.07;2.48;100310.97;5053982;28;20398;-67
2023/05/18 07:03:52;;;;;;;7.47;4.28;;;;;;;53.09;2.15;100314.22;5054279;28;20112;-66
2023/05/18 07:06:18;;;;;;;5.00;3.92;;;;;;;53.37;1.96;100304.88;5053618;28;20035;-68
2023/05/18 07:08:44;;;;;;;6.63;4.50;;;;;;;53.70;2.15;100318.41;5053126;28;20040;-69
2023/05/18 07:11:09;;;;;;;14.35;5.03;;;;;;;53.91;1.68;100309.81;5053933;28;20033;-67
2023/05/18 07:13:35;;;;;;;5.70;4.53;;;;;;;53.61;2.19;100313.06;5053368;28;20036;-67
2023/05/18 07:16:01;;;;;;;4.63;4.22;;;;;;;53.52;1.88;100304.88;5032386;28;20053;-63
2023/05/18 07:18:26;;;;;;;5.07;4.10;;;;;;;54.07;1.52;100317.97;5016237;28;20045;-65
2023/05/18 07:20:52;;;;;;;7.10;4.05;;;;;;;54.34;1.74;100285.97;5012865;28;20038;-65
2023/05/18 07:23:17;;;;;;;8.60;4.38;;;;;;;54.23;1.84;100326.09;5013842;28;20034;-62
2023/05/18 07:25:43;;;;;;;3.88;3.58;;;;;;;53.43;2.00;100321.66;5013389;28;20030;-63
2023/05/18 07:28:08;;;;;;;5.05;4.03;;;;;;;53.21;1.88;100319.53;5019317;28;20124;-63
2023/05/18 07:30:34;;;;;;;5.65;4.32;;;;;;;53.92;1.45;100304.88;5032100;28;20433;-62
2023/05/18 07:33:00;;;;;;;5.63;4.47;;;;;;;52.35;2.55;100320.84;5034001;28;20441;-64
2023/05/18 07:35:26;;;;;;;4.40;4.00;;;;;;;51.44;2.79;100307.88;5033343;28;20183;-63
2023/05/18 07:37:52;;;;;;;4.85;4.25;;;;;;;51.04;2.84;100300.94;5032328;28;20112;-63
2023/05/18 07:40:19;;;;;;;4.53;4.05;;;;;;;49.42;3.78;100316.00;5033926;28;20118;-63
2023/05/18 07:42:45;;;;;;;4.63;3.80;;;;;;;49.48;3.99;100310.00;5033203;28;20136;-61
2023/05/18 07:45:11;;;;;;;4.68;4.07;;;;;;;50.52;2.90;100310.03;5030555;28;20026;-63
2023/05/18 07:47:37;;;;;;;5.40;3.75;;;;;;;50.97;2.75;100299.66;5033205;28;20080;-63
2023/05/18 07:50:03;;;;;;;4.93;3.85;;;;;;;51.33;2.53;100306.94;5024915;28;20033;-64
2023/05/18 07:52:32;;;;;;;3.97;3.40;;;;;;;51.57;2.72;100316.13;5014306;28;20045;-62
2023/05/18 07:54:59;;;;;;;4.05;3.72;;;;;;;51.62;2.80;100319.44;5013565;28;20037;-62
2023/05/18 07:57:25;;;;;;;5.90;4.25;;;;;;;51.38;2.62;100295.22;5013540;28;20044;-63
2023/05/18 07:59:51;;;;;;;5.40;4.13;;;;;;;51.46;2.68;100313.19;5013639;28;20053;-63
2023/05/18 08:02:18;;;;;;;4.38;3.70;;;;;;;51.08;2.70;100313.19;5013624;28;20085;-63
2023/05/18 08:04:47;;;;;;;7.05;3.70;;;;;;;50.33;3.21;100303.28;5021018;28;20029;-63
2023/05/18 08:07:13;;;;;;;8.52;3.50;;;;;;;50.18;3.37;100301.44;5033059;28;20112;-64
2023/05/18 08:09:39;;;;;;;8.93;3.63;;;;;;;48.40;4.28;100310.25;5023759;28;20028;-62
2023/05/18 08:12:06;;;;;;;5.63;3.40;;;;;;;45.12;5.64;100308.59;5013212;28;20148;-70
2023/05/18 08:14:31;;;;;;;5.10;3.33;;;;;;;43.09;6.94;100284.25;5013389;28;20061;-63
2023/05/18 08:16:57;;;;;;;9.98;3.55;;;;;;;41.55;7.64;100302.53;5013753;28;20440;-63
2023/05/18 08:19:23;;;;;;;9.07;3.58;;;;;;;39.55;8.93;100306.63;5007576;28;20041;-69
2023/05/18 08:21:49;;;;;;;3.50;3.20;;;;;;;37.33;10.19;100261.69;5016604;28;20022;-63
2023/05/18 08:24:15;;;;;;;7.15;3.47;;;;;;;36.08;10.88;100307.34;5016150;28;20401;-64
2023/05/18 08:26:40;;;;;;;6.35;3.22;;;;;;;34.94;11.82;100294.25;5012113;28;20026;-62
2023/05/18 08:29:09;;;;;;;4.57;3.28;;;;;;;33.97;12.39;100293.66;5011953;28;20029;-69
2023/05/18 08:31:38;;;;;;;8.68;3.72;;;;;;;33.57;13.40;100297.81;5012439;28;20117;-63
2023/05/18 08:34:05;;;;;;;7.40;3.63;;;;;;;33.20;13.40;100296.66;5012427;28;20088;-64
2023/05/18 08:36:32;;;;;;;8.27;4.50;;;;;;;32.50;13.79;100294.53;5012358;28;20034;-69
2023/05/18 08:38:58;;;;;;;5.65;3.80;;;;;;;31.72;14.40;100289.84;5011900;28;20541;-63
2023/05/18 08:41:45;;;;;;;6.72;3.88;;;;;;;31.43;14.53;100301.03;5012391;28;20109;-60
2023/05/18 08:44:18;;;;;;;12.07;3.70;;;;;;;31.41;15.51;100300.44;5016633;28;20383;-62
2023/05/18 08:46:49;;;;;;;9.18;4.20;;;;;;;31.22;15.06;100290.44;5027184;28;20109;-61
2023/05/18 08:49:20;;;;;;;4.38;3.53;;;;;;;31.05;15.01;100295.94;5026755;28;20028;-61
2023/05/18 08:51:55;;;;;;;4.22;3.38;;;;;;;30.80;15.36;100276.97;5031861;28;20061;-60
2023/05/18 08:54:22;;;;;;;5.75;3.65;;;;;;;30.59;15.50;100292.28;5031429;28;20045;-61
2023/05/18 08:56:48;;;;;;;6.07;3.45;;;;;;;30.14;15.78;100286.38;5030077;28;20035;-61
2023/05/18 08:59:17;;;;;;;11.85;3.88;;;;;;;29.82;16.42;100283.19;5030542;28;20421;-62
2023/05/18 09:01:43;;;;;;;7.57;3.88;;;;;;;29.55;16.39;100284.50;5014032;28;20184;-60
2023/05/18 09:04:11;;;;;;;6.75;3.70;;;;;;;29.34;16.62;100259.16;5011793;28;20117;-61
2023/05/18 09:06:37;;;;;;;4.00;3.60;;;;;;;29.34;16.70;100239.84;5011820;28;20465;-62
2023/05/18 09:09:06;;;;;;;4.97;3.50;;;;;;;29.55;16.34;100267.94;5012288;28;20033;-62
2023/05/18 09:11:33;;;;;;;4.22;3.70;;;;;;;29.61;16.33;100272.50;5010549;28;20045;-62
2023/05/18 09:13:59;;;;;;;5.82;3.50;;;;;;;29.76;16.71;100283.03;5011861;28;20448;-61
2023/05/18 09:16:25;;;;;;;13.15;3.95;;;;;;;29.73;16.65;100258.69;4999051;28;20149;-60
2023/05/18 09:18:53;;;;;;;6.03;3.97;;;;;;;29.40;16.87;100264.78;5005097;28;20053;-62
2023/05/18 09:21:19;;;;;;;8.63;4.00;;;;;;;29.18;17.12;100274.47;5011909;28;20060;-59
2023/05/18 09:23:46;;;;;;;6.72;3.85;;;;;;;28.96;17.34;100262.31;5010058;28;20446;-60
2023/05/18 09:26:12;;;;;;;5.38;4.03;;;;;;;28.81;17.63;100252.56;5010883;28;20093;-64
2023/05/18 09:28:40;;;;;;;8.48;4.30;;;;;;;28.92;17.27;100270.22;5023663;28;20445;-62
2023/05/18 09:31:08;;;;;;;7.72;4.10;;;;;;;29.06;17.35;100284.66;5011011;28;20061;-61
2023/05/18 09:33:39;;;;;;;5.32;3.60;;;;;;;29.39;16.93;100279.66;5009523;28;20076;-61
2023/05/18 09:36:06;;;;;;;6.68;4.20;;;;;;;29.45;16.91;100263.03;5011950;28;20501;-61
2023/05/18 09:38:37;;;;;;;8.18;3.75;;;;;;;29.44;16.65;100239.28;5011175;28;20092;-62
2023/05/18 09:41:02;;;;;;;8.52;4.28;;;;;;;29.57;16.52;100264.97;5011114;28;20437;-58
2023/05/18 09:43:28;;;;;;;5.93;3.67;;;;;;;29.56;16.70;100266.03;5011161;28;20062;-63
2023/05/18 09:45:53;;;;;;;7.07;4.13;;;;;;;29.45;16.65;100262.19;5010475;28;20026;-62
2023/05/18 09:48:19;;;;;;;5.40;3.55;;;;;;;29.43;16.40;100256.91;5010502;28;20100;-66
2023/05/18 09:50:45;;;;;;;4.10;3.70;;;;;;;29.50;16.47;100263.13;5010499;28;20120;-62
2023/05/18 09:53:12;;;;;;;6.15;3.92;;;;;;;29.65;16.56;100248.84;5010986;28;20088;-61
2023/05/18 09:55:48;;;;;;;7.18;4.18;;;;;;;29.94;16.45;100265.53;4993854;28;20030;-68
2023/05/18 09:58:15;;;;;;;6.70;4.10;;;;;;;29.94;16.14;100254.50;5011452;28;20026;-62
2023/05/18 10:00:43;;;;;;;6.03;3.88;;;;;;;29.93;16.37;100258.34;5010453;28;20065;-61
2023/05/18 10:03:19;;;;;;;6.97;3.88;;;;;;;30.10;16.38;100257.59;5010256;28;20098;-64
2023/05/18 10:05:45;;;;;;;6.95;4.05;;;;;;;30.14;16.28;100253.25;5011598;28;20096;-61
2023/05/18 10:08:14;;;;;;;9.02;4.05;;;;;;;30.04;16.17;100255.81;5010118;28;20489;-60
2023/05/18 10:10:43;;;;;;;5.72;3.95;;;;;;;29.71;16.42;100255.34;5013076;28;20525;-60
2023/05/18 10:13:13;;;;;;;6.85;3.97;;;;;;;29.50;16.80;100259.56;5013891;28;20105;-65
2023/05/18 10:15:47;;;;;;;8.90;4.20;;;;;;;29.46;16.69;100255.59;5029829;28;20056;-64
2023/05/18 10:18:26;;;;;;;4.50;4.10;;;;;;;29.34;17.31;100250.88;5053329;28;20029;-61
2023/05/18 10:20:54;;;;;;;7.55;4.00;;;;;;;29.32;17.33;100254.97;5039190;28;20123;-62
2023/05/18 10:23:22;;;;;;;6.03;4.00;;;;;;;29.48;17.12;100253.44;5036528;28;20036;-62
2023/05/18 10:25:50;;;;;;;8.68;4.10;;;;;;;29.48;16.88;100212.91;5053831;28;20120;-64
2023/05/18 10:28:27;;;;;;;7.47;4.28;;;;;;;29.85;16.66;100233.84;5053873;28;20161;-61
2023/05/18 10:30:54;;;;;;;6.63;4.25;;;;;;;29.76;16.91;100240.84;5054115;28;20111;-60
2023/05/18 10:33:26;;;;;;;4.72;3.97;;;;;;;29.70;17.01;100214.22;5053433;28;20025;-62
2023/05/18 10:35:53;;;;;;;10.95;4.13;;;;;;;29.78;16.92;100246.94;5035677;28;20527;-61
2023/05/18 10:38:24;;;;;;;5.72;4.30;;;;;;;29.70;17.09;100252.84;5036946;28;20025;-63
2023/05/18 10:40:52;;;;;;;7.28;4.25;;;;;;;29.49;17.29;100247.66;5053474;28;20409;-61
2023/05/18 10:43:20;;;;;;;14.00;4.50;;;;;;;29.35;17.22;100246.22;5052187;28;20033;-61
2023/05/18 10:45:51;;;;;;;6.50;4.28;;;;;;;29.32;17.30;100246.69;5053978;28;20029;-61
2023/05/18 10:48:18;;;;;;;7.13;4.22;;;;;;;29.23;17.62;100240.69;5036620;28;20043;-66
2023/05/18 10:50:47;;;;;;;5.75;4.60;;;;;;;29.20;17.63;100243.94;5049962;28;20047;-61
2023/05/18 10:53:15;;;;;;;3.90;3.50;;;;;;;29.16;17.13;100226.16;5027066;28;20028;-62
2023/05/18 10:55:41;;;;;;;5.18;3.50;;;;;;;29.22;17.64;100227.97;5051546;28;20028;-68
2023/05/18 10:58:12;;;;;;;6.63;3.50;;;;;;;29.05;17.32;100198.34;5034747;28;20047;-64
2023/05/18 11:00:40;;;;;;;6.47;3.55;;;;;;;29.22;17.60;100215.03;5037062;28;20040;-62
2023/05/18 11:03:12;;;;;;;4.57;3.75;;;;;;;29.37;16.80;100233.84;5049370;28;20123;-64
2023/05/18 11:05:42;;;;;;;6.28;3.80;;;;;;;29.21;17.42;100220.78;5052924;28;20040;-63
2023/05/18 11:08:08;;;;;;;4.68;3.60;;;;;;;29.02;17.06;100209.84;5053511;28;20102;-59
2023/05/18 11:10:41;;;;;;;9.18;4.00;;;;;;;29.10;17.11;100227.09;5054125;28;20031;-61
2023/05/18 11:13:08;;;;;;;6.15;3.78;;;;;;;28.86;17.56;100213.28;5053932;28;20110;-60
2023/05/18 11:15:51;;;;;;;6.88;3.47;;;;;;;28.94;17.51;100218.47;5053213;28;20053;-60
2023/05/18 11:18:17;;;;;;;4.18;3.78;;;;;;;28.61;17.75;100204.09;5053257;28;20129;-59
2023/05/18 11:20:45;;;;;;;6.05;3.90;;;;;;;28.59;18.07;100216.41;5051611;28;20341;-64
2023/05/18 11:23:13;;;;;;;6.43;3.97;;;;;;;28.29;18.03;100209.81;5052598;28;20090;-73